createdAt,value
2023-01-09T00:01:40.152Z,12.30
2023-01-09T00:04:09.006Z,11.70
2023-01-09T00:06:37.568Z,13.40
2023-01-09T00:09:07.102Z,11.90
2023-01-09T00:11:35.326Z,12.20
2023-01-09T00:14:04.754Z,11.70
2023-01-09T00:16:32.844Z,8.70
2023-01-09T00:19:01.145Z,9.10
2023-01-09T00:21:29.045Z,10.90
2023-01-09T00:23:57.146Z,6.40
2023-01-09T00:26:25.149Z,9.60
2023-01-09T00:28:54.258Z,10.00
2023-01-09T00:31:22.827Z,10.40
2023-01-09T00:34:03.384Z,10.20
2023-01-09T00:36:32.354Z,10.20
2023-01-09T00:39:00.598Z,9.50
2023-01-09T00:41:35.254Z,8.10
2023-01-09T00:44:10.439Z,9.10
2023-01-09T00:46:44.403Z,8.50
2023-01-09T00:49:14.744Z,10.70
2023-01-09T00:51:42.880Z,10.70
2023-01-09T00:54:14.170Z,9.40
2023-01-09T00:56:42.679Z,10.00
2023-01-09T00:59:10.714Z,9.20
2023-01-09T01:01:38.863Z,10.00
2023-01-09T01:04:25.885Z,10.20
2023-01-09T01:07:12.714Z,8.10
2023-01-09T01:09:40.874Z,8.00
2023-01-09T01:12:09.366Z,9.40
2023-01-09T01:14:39.197Z,9.00
2023-01-09T01:17:08.248Z,9.10
2023-01-09T01:19:36.721Z,8.80
2023-01-09T01:22:05.293Z,9.10
2023-01-09T01:24:33.841Z,8.20
2023-01-09T01:27:02.299Z,8.70
2023-01-09T01:29:30.634Z,7.30
2023-01-09T01:31:58.627Z,8.80
2023-01-09T01:34:29.536Z,9.70
2023-01-09T01:36:57.944Z,9.20
2023-01-09T01:39:26.106Z,8.50
2023-01-09T01:41:54.271Z,7.70
2023-01-09T01:44:56.378Z,7.80
2023-01-09T01:47:33.471Z,7.50
2023-01-09T01:50:08.728Z,7.30
2023-01-09T01:52:37.557Z,6.90
2023-01-09T01:55:08.532Z,7.20
2023-01-09T01:57:41.420Z,6.20
2023-01-09T02:00:12.305Z,7.00
2023-01-09T02:02:40.910Z,6.10
2023-01-09T02:05:09.447Z,6.70
2023-01-09T02:07:37.596Z,5.30
2023-01-09T02:10:06.130Z,6.60
2023-01-09T02:12:34.084Z,6.90
2023-01-09T02:15:10.217Z,6.10
2023-01-09T02:18:12.173Z,7.60
2023-01-09T02:20:52.131Z,6.90
2023-01-09T02:23:35.475Z,7.40
2023-01-09T02:26:28.189Z,6.60
2023-01-09T02:29:05.370Z,6.50
2023-01-09T02:31:49.515Z,6.40
2023-01-09T02:34:30.684Z,6.00
2023-01-09T02:37:44.165Z,5.70
2023-01-09T02:40:31.033Z,6.10
2023-01-09T02:43:00.865Z,6.30
2023-01-09T02:45:28.941Z,6.40
2023-01-09T02:47:57.163Z,6.70
2023-01-09T02:50:37.376Z,6.30
2023-01-09T02:53:24.212Z,5.80
2023-01-09T02:56:11.360Z,6.90
2023-01-09T02:58:42.487Z,4.80
2023-01-09T03:01:45.010Z,6.10
2023-01-09T03:04:23.354Z,6.50
2023-01-09T03:07:08.576Z,6.30
2023-01-09T03:09:41.474Z,5.70
2023-01-09T03:12:21.089Z,6.30
2023-01-09T03:14:53.519Z,6.00
2023-01-09T03:17:57.508Z,5.90
2023-01-09T03:20:29.595Z,5.40
2023-01-09T03:23:01.806Z,5.80
2023-01-09T03:25:31.337Z,5.40
2023-01-09T03:28:02.467Z,6.60
2023-01-09T03:30:32.649Z,6.00
2023-01-09T03:33:01.202Z,6.70
2023-01-09T03:35:29.266Z,7.30
2023-01-09T03:37:59.102Z,6.70
2023-01-09T03:40:27.101Z,6.20
2023-01-09T03:42:55.117Z,4.90
2023-01-09T03:45:23.326Z,7.50
2023-01-09T03:47:53.018Z,6.50
2023-01-09T03:50:21.237Z,6.70
2023-01-09T03:52:49.335Z,6.00
2023-01-09T03:55:17.355Z,7.00
2023-01-09T03:57:45.356Z,6.90
2023-01-09T04:00:14.191Z,7.00
2023-01-09T04:02:43.349Z,7.00
2023-01-09T04:05:11.784Z,6.10
2023-01-09T04:07:40.109Z,5.70
2023-01-09T04:10:09.679Z,6.20
2023-01-09T04:12:37.974Z,6.40
2023-01-09T04:15:06.946Z,3.90
2023-01-09T04:17:35.151Z,7.10
2023-01-09T04:20:04.400Z,7.10
2023-01-09T04:22:32.695Z,7.10
2023-01-09T04:25:00.964Z,7.10
2023-01-09T04:27:29.248Z,5.70
2023-01-09T04:29:57.611Z,7.80
2023-01-09T04:32:27.794Z,3.40
2023-01-09T04:34:55.649Z,7.20
2023-01-09T04:37:24.147Z,7.70
2023-01-09T04:39:56.150Z,7.50
2023-01-09T04:42:24.636Z,7.60
2023-01-09T04:44:54.313Z,7.20
2023-01-09T04:47:23.915Z,7.20
2023-01-09T04:49:52.427Z,5.00
2023-01-09T04:52:20.499Z,6.50
2023-01-09T04:54:48.563Z,6.70
2023-01-09T04:57:16.851Z,5.70
2023-01-09T04:59:45.124Z,7.00
2023-01-09T05:02:13.317Z,6.50
2023-01-09T05:04:42.512Z,6.50
2023-01-09T05:07:10.749Z,4.90
2023-01-09T05:09:39.145Z,7.20
2023-01-09T05:12:07.709Z,5.80
2023-01-09T05:14:35.847Z,5.20
2023-01-09T05:17:04.168Z,5.20
2023-01-09T05:19:32.404Z,8.00
2023-01-09T05:22:00.546Z,6.10
2023-01-09T05:24:28.960Z,8.20
2023-01-09T05:26:57.381Z,7.40
2023-01-09T05:29:25.649Z,7.70
2023-01-09T05:31:54.129Z,8.00
2023-01-09T05:34:22.757Z,10.00
2023-01-09T05:36:50.818Z,8.60
2023-01-09T05:39:18.940Z,7.60
2023-01-09T05:41:47.527Z,6.30
2023-01-09T05:44:15.898Z,7.20
2023-01-09T05:46:44.129Z,7.90
2023-01-09T05:49:12.728Z,7.90
2023-01-09T05:51:41.184Z,7.10
2023-01-09T05:54:09.931Z,7.40
2023-01-09T05:56:38.029Z,7.80
2023-01-09T05:59:06.455Z,7.70
2023-01-09T06:01:34.794Z,8.00
2023-01-09T06:04:03.295Z,8.30
2023-01-09T06:06:31.905Z,6.70
2023-01-09T06:09:00.303Z,9.10
2023-01-09T06:11:29.106Z,7.90
2023-01-09T06:13:58.408Z,7.50
2023-01-09T06:16:27.014Z,8.10
2023-01-09T06:18:55.868Z,7.40
2023-01-09T06:21:25.223Z,8.20
2023-01-09T06:23:53.702Z,7.00
2023-01-09T06:26:21.785Z,7.60
2023-01-09T06:28:50.096Z,8.10
2023-01-09T06:31:18.249Z,8.00
2023-01-09T06:33:46.721Z,8.10
2023-01-09T06:36:15.390Z,8.10
2023-01-09T06:38:43.792Z,7.50
2023-01-09T06:41:12.505Z,6.70
2023-01-09T06:43:40.825Z,7.20
2023-01-09T06:46:09.973Z,6.80
2023-01-09T06:48:38.155Z,7.20
2023-01-09T06:51:06.461Z,7.10
2023-01-09T06:53:35.477Z,7.50
2023-01-09T06:56:03.825Z,6.70
2023-01-09T06:58:32.309Z,7.10
2023-01-09T07:01:01.113Z,8.60
2023-01-09T07:03:29.679Z,8.80
2023-01-09T07:05:57.935Z,8.00
2023-01-09T07:08:26.315Z,8.50
2023-01-09T07:10:54.613Z,8.20
2023-01-09T07:13:23.100Z,8.40
2023-01-09T07:15:53.837Z,8.50
2023-01-09T07:18:22.222Z,9.60
2023-01-09T07:20:51.396Z,6.60
2023-01-09T07:23:19.549Z,7.80
2023-01-09T07:25:47.735Z,7.30
2023-01-09T07:28:16.278Z,7.80
2023-01-09T07:30:44.766Z,7.30
2023-01-09T07:33:12.965Z,7.40
2023-01-09T07:35:42.504Z,6.60
2023-01-09T07:38:10.928Z,7.70
2023-01-09T07:40:39.526Z,7.50
2023-01-09T07:43:08.783Z,9.00
2023-01-09T07:45:38.008Z,7.60
2023-01-09T07:48:06.958Z,7.60
2023-01-09T07:50:35.296Z,7.80
2023-01-09T07:53:03.759Z,7.10
2023-01-09T07:55:32.058Z,7.80
2023-01-09T07:58:00.541Z,7.00
2023-01-09T08:00:29.048Z,7.40
2023-01-09T08:02:57.970Z,7.40
2023-01-09T08:05:27.066Z,6.70
2023-01-09T08:07:56.056Z,8.10
2023-01-09T08:10:24.301Z,7.40
2023-01-09T08:12:52.499Z,7.70
2023-01-09T08:15:21.160Z,7.50
2023-01-09T08:17:49.663Z,8.00
2023-01-09T08:20:19.424Z,7.20
2023-01-09T08:22:50.977Z,7.90
2023-01-09T08:25:19.480Z,8.00
2023-01-09T08:27:48.224Z,8.50
2023-01-09T08:30:17.601Z,7.40
2023-01-09T08:32:52.958Z,7.20
2023-01-09T08:37:50.245Z,4.00
2023-01-09T08:40:19.070Z,7.10
2023-01-09T08:43:06.490Z,8.40
2023-01-09T08:45:53.713Z,8.30
2023-01-09T08:48:22.347Z,5.80
2023-01-09T08:50:51.098Z,8.10
2023-01-09T08:53:19.798Z,6.20
2023-01-09T08:55:50.403Z,3.00
2023-01-09T08:58:18.649Z,7.60
2023-01-09T09:00:47.030Z,7.60
2023-01-09T09:03:15.227Z,7.00
2023-01-09T09:05:46.123Z,7.50
2023-01-09T09:08:16.839Z,7.80
2023-01-09T09:10:45.555Z,8.00
2023-01-09T09:13:14.418Z,5.50
2023-01-09T09:15:43.226Z,5.50
2023-01-09T09:18:12.045Z,6.70
2023-01-09T09:20:40.773Z,6.20
2023-01-09T09:23:09.433Z,6.00
2023-01-09T09:25:40.972Z,7.10
2023-01-09T09:28:10.343Z,8.00
2023-01-09T09:30:39.559Z,8.80
2023-01-09T09:33:08.402Z,8.40
2023-01-09T09:35:37.383Z,7.80
2023-01-09T09:38:06.196Z,6.40
2023-01-09T09:41:32.236Z,9.30
2023-01-09T09:44:26.171Z,7.90
2023-01-09T09:47:21.332Z,4.20
2023-01-09T09:50:15.201Z,9.20
2023-01-09T09:53:05.036Z,9.20
2023-01-09T09:55:38.624Z,4.30
2023-01-09T09:58:37.807Z,6.70
2023-01-09T10:01:09.560Z,7.80
2023-01-09T10:03:59.425Z,7.20
2023-01-09T10:06:38.054Z,7.00
2023-01-09T10:09:33.222Z,5.20
2023-01-09T10:12:05.580Z,8.10
2023-01-09T10:14:34.789Z,8.50
2023-01-09T10:17:19.207Z,9.00
2023-01-09T10:19:55.279Z,9.00
2023-01-09T10:22:39.202Z,9.30
2023-01-09T10:25:18.389Z,9.00
2023-01-09T10:28:14.672Z,9.90
2023-01-09T10:31:05.419Z,10.40
2023-01-09T10:33:33.579Z,10.20
2023-01-09T10:36:14.329Z,4.90
2023-01-09T10:38:47.958Z,7.10
2023-01-09T10:41:28.117Z,6.60
2023-01-09T10:44:20.675Z,6.30
2023-01-09T10:46:58.025Z,6.30
2023-01-09T10:49:27.598Z,6.70
2023-01-09T10:52:13.288Z,5.60
2023-01-09T10:54:56.484Z,6.60
2023-01-09T10:57:28.511Z,6.20
2023-01-09T10:59:57.709Z,6.60
2023-01-09T11:02:34.478Z,7.00
2023-01-09T11:05:03.335Z,7.60
2023-01-09T11:07:41.893Z,6.10
2023-01-09T11:10:13.437Z,25.30
2023-01-09T11:12:43.709Z,56.30
2023-01-09T11:15:21.181Z,26.10
2023-01-09T11:17:52.783Z,18.50
2023-01-09T11:20:29.715Z,5.90
2023-01-09T11:22:59.149Z,5.50
2023-01-09T11:25:29.574Z,5.80
2023-01-09T11:28:08.667Z,6.50
2023-01-09T11:30:51.257Z,5.90
2023-01-09T11:33:24.882Z,3.90
2023-01-09T11:36:01.903Z,6.50
2023-01-09T11:38:32.222Z,9.30
2023-01-09T11:41:06.925Z,8.90
2023-01-09T11:43:38.587Z,7.60
2023-01-09T11:46:11.710Z,6.90
2023-01-09T11:48:54.844Z,7.60
2023-01-09T11:51:30.022Z,7.40
2023-01-09T11:54:13.428Z,8.10
2023-01-09T11:56:43.297Z,8.30
2023-01-09T11:59:18.913Z,5.80
2023-01-09T12:02:00.076Z,5.40
2023-01-09T12:04:48.638Z,8.90
2023-01-09T12:07:22.748Z,6.60
2023-01-09T12:10:20.418Z,8.30
2023-01-09T12:13:03.347Z,8.20
2023-01-09T12:16:01.819Z,8.50
2023-01-09T12:18:40.908Z,7.00
2023-01-09T12:25:35.794Z,5.00
2023-01-09T12:28:39.959Z,7.50
2023-01-09T12:31:46.685Z,8.40
2023-01-09T12:34:45.101Z,6.70
2023-01-09T12:37:53.273Z,6.40
2023-01-09T12:40:39.028Z,4.20
2023-01-09T12:43:13.344Z,4.80
2023-01-09T12:45:48.809Z,5.60
2023-01-09T12:48:45.545Z,5.20
2023-01-09T12:51:27.425Z,5.50
2023-01-09T12:54:05.338Z,5.00
2023-01-09T12:56:42.459Z,4.70
2023-01-09T12:59:36.396Z,4.90
2023-01-09T13:02:17.422Z,4.70
2023-01-09T13:05:00.544Z,4.50
2023-01-09T13:07:51.168Z,5.70
2023-01-09T13:10:33.326Z,6.10
2023-01-09T13:13:14.770Z,5.60
2023-01-09T13:15:47.820Z,6.20
2023-01-09T13:18:25.703Z,5.40
2023-01-09T13:20:56.837Z,3.10
2023-01-09T13:23:56.279Z,5.40
2023-01-09T13:26:33.411Z,5.10
2023-01-09T13:29:16.710Z,4.50
2023-01-09T13:31:53.687Z,4.00
2023-01-09T13:34:28.558Z,5.50
2023-01-09T13:36:59.195Z,5.30
2023-01-09T13:39:34.373Z,9.60
2023-01-09T13:42:24.664Z,9.80
2023-01-09T13:44:56.799Z,9.40
2023-01-09T13:47:28.202Z,8.60
2023-01-09T13:50:06.251Z,6.30
2023-01-09T13:52:37.021Z,6.70
2023-01-09T13:55:11.855Z,6.70
2023-01-09T13:58:14.358Z,5.60
2023-01-09T14:00:49.380Z,6.70
2023-01-09T14:03:22.793Z,6.70
2023-01-09T14:05:51.345Z,7.10
2023-01-09T14:08:23.007Z,6.30
2023-01-09T14:10:58.268Z,6.90
2023-01-09T14:16:03.987Z,5.80
2023-01-09T14:18:36.582Z,6.60
2023-01-09T14:21:11.370Z,6.20
2023-01-09T14:23:59.226Z,7.30
2023-01-09T14:26:57.774Z,7.20
2023-01-09T14:29:29.787Z,7.60
2023-01-09T14:32:34.028Z,9.30
2023-01-09T14:35:08.393Z,8.90
2023-01-09T14:37:40.819Z,9.30
2023-01-09T14:40:24.119Z,8.20
2023-01-09T14:42:55.630Z,8.20
2023-01-09T14:45:27.204Z,8.10
2023-01-09T14:48:00.994Z,8.90
2023-01-09T14:50:55.487Z,8.00
2023-01-09T14:53:31.647Z,8.70
2023-01-09T14:56:02.548Z,8.40
2023-01-09T14:58:36.686Z,8.40
2023-01-09T15:01:07.336Z,10.80
2023-01-09T15:03:38.942Z,10.60
2023-01-09T15:06:15.818Z,11.00
2023-01-09T15:08:56.998Z,9.20
2023-01-09T15:11:26.929Z,11.50
2023-01-09T15:14:00.579Z,11.50
2023-01-09T15:16:30.050Z,12.20
2023-01-09T15:19:03.200Z,12.20
2023-01-09T15:21:32.947Z,12.50
2023-01-09T15:24:27.416Z,10.70
2023-01-09T15:26:59.208Z,11.40
2023-01-09T15:29:28.837Z,9.60
2023-01-09T15:32:06.622Z,9.60
2023-01-09T15:34:35.422Z,8.70
2023-01-09T15:37:04.585Z,10.50
2023-01-09T15:39:37.485Z,9.10
2023-01-09T15:42:39.698Z,9.10
2023-01-09T15:45:18.995Z,9.00
2023-01-09T15:47:47.941Z,9.00
2023-01-09T15:50:19.233Z,11.70
2023-01-09T15:52:48.202Z,12.20
2023-01-09T15:55:26.312Z,13.80
2023-01-09T15:57:55.597Z,13.60
2023-01-09T16:00:36.896Z,13.90
2023-01-09T16:03:25.115Z,11.60
2023-01-09T16:06:07.093Z,11.90
2023-01-09T16:08:40.241Z,11.60
2023-01-09T16:11:20.430Z,11.20
2023-01-09T16:13:49.249Z,11.50
2023-01-09T16:16:31.513Z,8.80
2023-01-09T16:19:00.640Z,11.00
2023-01-09T16:21:41.218Z,11.30
2023-01-09T16:24:25.694Z,10.70
2023-01-09T16:27:27.363Z,10.40
2023-01-09T16:30:05.696Z,9.50
2023-01-09T16:32:45.579Z,11.70
2023-01-09T16:35:17.193Z,11.90
2023-01-09T16:37:46.457Z,13.00
2023-01-09T16:40:18.387Z,13.90
2023-01-09T16:43:05.795Z,15.10
2023-01-09T16:45:38.739Z,13.10
2023-01-09T16:48:20.604Z,14.20
2023-01-09T16:50:49.286Z,14.80
2023-01-09T16:53:24.403Z,14.10
2023-01-09T16:55:54.346Z,12.60
2023-01-09T16:58:35.502Z,14.30
2023-01-09T17:01:04.140Z,14.60
2023-01-09T17:03:33.105Z,12.80
2023-01-09T17:06:03.534Z,15.40
2023-01-09T17:08:35.670Z,14.30
2023-01-09T17:11:04.638Z,15.80
2023-01-09T17:13:33.454Z,17.20
2023-01-09T17:16:02.024Z,16.70
2023-01-09T17:18:30.527Z,14.60
2023-01-09T17:21:01.077Z,15.40
2023-01-09T17:23:30.733Z,16.20
2023-01-09T17:26:18.686Z,15.00
2023-01-09T17:28:50.801Z,17.40
2023-01-09T17:31:19.552Z,13.70
2023-01-09T17:33:48.696Z,16.90
2023-01-09T17:36:27.153Z,14.80
2023-01-09T17:38:55.731Z,13.50
2023-01-09T17:41:29.566Z,14.60
2023-01-09T17:43:59.532Z,14.60
2023-01-09T17:46:33.843Z,14.00
2023-01-09T17:49:04.090Z,15.00
2023-01-09T17:51:33.052Z,15.10
2023-01-09T17:54:01.432Z,14.70
2023-01-09T17:56:33.338Z,16.10
2023-01-09T17:59:02.109Z,14.70
2023-01-09T18:01:30.584Z,14.80
2023-01-09T18:03:58.975Z,12.90
2023-01-09T18:06:27.382Z,12.60
2023-01-09T18:08:58.021Z,11.40
2023-01-09T18:11:26.530Z,13.70
2023-01-09T18:13:55.241Z,15.70
2023-01-09T18:16:26.129Z,14.80
2023-01-09T18:18:57.871Z,16.40
2023-01-09T18:21:28.554Z,15.90
2023-01-09T18:23:58.445Z,16.10
2023-01-09T18:26:28.522Z,14.30
2023-01-09T18:28:59.826Z,14.40
2023-01-09T18:31:30.709Z,11.70
2023-01-09T18:34:03.094Z,10.10
2023-01-09T18:36:32.363Z,9.40
2023-01-09T18:39:02.907Z,9.50
2023-01-09T18:41:32.688Z,8.00
2023-01-09T18:44:02.234Z,8.60
2023-01-09T18:46:32.378Z,8.70
2023-01-09T18:49:03.372Z,8.40
2023-01-09T18:51:34.217Z,8.20
2023-01-09T18:54:03.338Z,8.50
2023-01-09T18:56:31.795Z,8.30
2023-01-09T18:59:00.390Z,10.30
2023-01-09T19:01:30.575Z,9.00
2023-01-09T19:04:00.854Z,8.60
2023-01-09T19:06:30.361Z,8.30
2023-01-09T19:08:59.750Z,9.40
2023-01-09T19:11:29.453Z,9.60
2023-01-09T19:13:58.407Z,9.30
2023-01-09T19:16:26.527Z,9.90
2023-01-09T19:18:55.163Z,10.40
2023-01-09T19:21:26.905Z,11.50
2023-01-09T19:23:56.829Z,11.50
2023-01-09T19:26:27.812Z,10.80
2023-01-09T19:28:58.032Z,11.20
2023-01-09T19:31:28.871Z,11.80
2023-01-09T19:33:58.220Z,12.30
2023-01-09T19:36:27.521Z,12.70
2023-01-09T19:39:04.984Z,12.90
2023-01-09T19:41:33.889Z,11.40
2023-01-09T19:44:03.252Z,11.20
2023-01-09T19:46:33.720Z,11.90
2023-01-09T19:49:04.897Z,11.80
2023-01-09T19:51:33.998Z,12.00
2023-01-09T19:56:32.722Z,10.60
2023-01-09T19:59:03.745Z,9.50
2023-01-09T20:01:35.045Z,10.20
2023-01-09T20:04:08.040Z,9.60
2023-01-09T20:06:41.579Z,9.10
2023-01-09T20:09:14.033Z,8.70
2023-01-09T20:11:44.936Z,8.70
2023-01-09T20:14:19.026Z,8.70
2023-01-09T20:16:48.660Z,9.90
2023-01-09T20:19:16.900Z,8.70
2023-01-09T20:21:45.031Z,9.10
2023-01-09T20:24:15.364Z,9.90
2023-01-09T20:26:44.103Z,8.90
2023-01-09T20:29:12.858Z,9.90
2023-01-09T20:31:41.243Z,10.70
2023-01-09T20:34:12.490Z,11.80
2023-01-09T20:36:40.897Z,12.20
2023-01-09T20:39:11.768Z,10.70
2023-01-09T20:41:40.255Z,10.60
2023-01-09T20:44:14.245Z,6.20
2023-01-09T20:46:47.528Z,7.90
2023-01-09T20:49:18.514Z,7.90
2023-01-09T20:51:50.340Z,8.30
2023-01-09T20:54:21.654Z,9.00
2023-01-09T20:56:50.964Z,6.60
2023-01-09T20:59:23.335Z,8.40
2023-01-09T21:01:51.817Z,8.60
2023-01-09T21:04:20.241Z,8.30
2023-01-09T21:06:50.210Z,6.80
2023-01-09T21:09:18.578Z,7.60
2023-01-09T21:11:46.774Z,7.30
2023-01-09T21:14:14.861Z,6.60
2023-01-09T21:16:45.465Z,6.70
2023-01-09T21:19:19.595Z,6.90
2023-01-09T21:21:47.744Z,6.80
2023-01-09T21:24:16.036Z,7.40
2023-01-09T21:26:44.095Z,7.80
2023-01-09T21:29:13.042Z,8.20
2023-01-09T21:31:41.180Z,8.40
2023-01-09T21:34:14.793Z,7.30
2023-01-09T21:36:45.187Z,8.80
2023-01-09T21:39:13.423Z,8.70
2023-01-09T21:42:00.055Z,8.50
2023-01-09T21:44:46.838Z,7.30
2023-01-09T21:47:15.246Z,8.10
2023-01-09T21:49:44.899Z,9.10
2023-01-09T21:52:14.243Z,7.30
2023-01-09T21:54:42.519Z,7.80
2023-01-09T21:57:11.154Z,8.70
2023-01-09T21:59:39.393Z,8.10
2023-01-09T22:02:12.085Z,8.60
2023-01-09T22:04:43.030Z,9.00
2023-01-09T22:07:11.322Z,9.00
2023-01-09T22:09:39.695Z,8.40
2023-01-09T22:12:09.103Z,8.50
2023-01-09T22:14:38.864Z,9.10
2023-01-09T22:17:07.882Z,8.00
2023-01-09T22:19:35.972Z,7.90
2023-01-09T22:22:07.331Z,8.10
2023-01-09T22:24:35.713Z,5.30
2023-01-09T22:27:04.276Z,8.50
2023-01-09T22:29:32.271Z,7.20
2023-01-09T22:32:00.582Z,7.20
2023-01-09T22:34:29.001Z,7.90
2023-01-09T22:36:57.336Z,8.10
2023-01-09T22:39:25.653Z,7.90
2023-01-09T22:41:55.443Z,6.20
2023-01-09T22:44:23.472Z,8.00
2023-01-09T22:46:51.724Z,6.90
2023-01-09T22:49:24.181Z,7.30
2023-01-09T22:51:53.201Z,6.80
2023-01-09T22:54:21.334Z,8.40
2023-01-09T22:56:50.443Z,8.20
2023-01-09T22:59:18.652Z,8.70
2023-01-09T23:01:46.756Z,8.50
2023-01-09T23:04:16.817Z,7.10
2023-01-09T23:06:44.793Z,7.60
2023-01-09T23:09:12.954Z,7.80
2023-01-09T23:11:59.770Z,7.30
2023-01-09T23:14:29.749Z,7.10
2023-01-09T23:16:58.036Z,8.00
2023-01-09T23:19:26.045Z,7.80
2023-01-09T23:21:54.096Z,8.40
2023-01-09T23:24:22.377Z,8.30
2023-01-09T23:26:52.333Z,8.10
2023-01-09T23:29:22.137Z,5.80
2023-01-09T23:31:53.693Z,6.90
2023-01-09T23:34:25.818Z,4.80
2023-01-09T23:36:57.483Z,8.10
2023-01-09T23:39:25.944Z,7.10
2023-01-09T23:42:12.803Z,7.30
2023-01-09T23:44:41.202Z,7.30
2023-01-09T23:47:10.120Z,8.30
2023-01-09T23:49:38.982Z,8.30
2023-01-09T23:52:08.893Z,7.80
2023-01-09T23:54:37.028Z,7.70
2023-01-09T23:57:05.373Z,8.30
2023-01-09T23:59:33.365Z,6.40
